Time;durP1;ratioP1;P1;durP2;ratioP2;P2;SDS_P1;SDS_P2;PMS_P1;PMS_P2;Temp;Humidity;BMP_temperature;BMP_pressure;BME280_temperature;BME280_humidity;BME280_pressure;Samples;Min_cycle;Max_cycle;Signal;HPM_P1;HPM_P2
2021/03/05 00:00:41;;;;;;;18.60;8.60;;;2.20;99.90;;;;;;5008637;28;20502;-77
2021/03/05 00:03:08;;;;;;;15.68;7.20;;;2.20;99.90;;;;;;5000814;28;20052;-77
2021/03/05 00:05:37;;;;;;;16.38;7.53;;;2.10;99.90;;;;;;4992282;28;20053;-77
2021/03/05 00:08:05;;;;;;;21.15;8.70;;;2.10;99.90;;;;;;5007766;28;20038;-77
2021/03/05 00:10:33;;;;;;;16.52;7.00;;;2.10;99.90;;;;;;5009538;28;20093;-77
2021/03/05 00:13:00;;;;;;;15.50;6.15;;;2.10;99.90;;;;;;5007073;28;20054;-77
2021/03/05 00:15:29;;;;;;;19.52;7.63;;;2.10;99.90;;;;;;5007416;28;20041;-77
2021/03/05 00:17:56;;;;;;;20.92;9.02;;;2.00;99.90;;;;;;5008364;28;20524;-77
2021/03/05 00:20:25;;;;;;;23.80;9.38;;;2.00;99.90;;;;;;5007862;28;20918;-78
2021/03/05 00:22:52;;;;;;;21.67;9.27;;;2.00;99.90;;;;;;5006683;28;20049;-79
2021/03/05 00:25:19;;;;;;;23.73;8.68;;;2.00;99.90;;;;;;5004036;28;20153;-77
2021/03/05 00:27:45;;;;;;;15.23;7.55;;;1.90;99.90;;;;;;5004686;28;20553;-76
2021/03/05 00:30:11;;;;;;;20.73;7.85;;;1.90;99.90;;;;;;5006406;28;20060;-77
2021/03/05 00:32:38;;;;;;;20.02;9.00;;;1.90;99.90;;;;;;5006927;28;20121;-77
2021/03/05 00:35:08;;;;;;;21.70;9.15;;;1.90;99.90;;;;;;4990452;28;20069;-78
2021/03/05 00:37:35;;;;;;;19.83;9.13;;;1.80;99.90;;;;;;4987805;28;20076;-78
2021/03/05 00:40:06;;;;;;;21.35;8.65;;;1.80;99.90;;;;;;5007526;28;20060;-77
2021/03/05 00:42:32;;;;;;;21.95;9.13;;;1.80;99.90;;;;;;5004236;28;20046;-76
2021/03/05 00:44:59;;;;;;;19.45;8.93;;;1.80;99.90;;;;;;5003381;28;20077;-77
2021/03/05 00:47:26;;;;;;;17.73;9.00;;;1.70;99.90;;;;;;5003203;28;20060;-77
2021/03/05 00:49:52;;;;;;;26.50;10.90;;;1.70;99.90;;;;;;5003782;28;20059;-77
2021/03/05 00:52:18;;;;;;;25.17;9.63;;;1.70;99.90;;;;;;4990153;28;20520;-77
2021/03/05 00:54:45;;;;;;;26.27;10.65;;;1.60;99.90;;;;;;4987833;28;20104;-77
2021/03/05 00:57:11;;;;;;;20.90;8.80;;;1.60;99.90;;;;;;5003739;28;20705;-77
2021/03/05 00:59:37;;;;;;;21.60;9.43;;;1.60;99.90;;;;;;5002603;28;20533;-77
2021/03/05 01:02:03;;;;;;;20.10;8.45;;;1.50;99.90;;;;;;5009020;28;20515;-77
2021/03/05 01:04:30;;;;;;;29.75;9.75;;;1.50;99.90;;;;;;5004162;28;20093;-76
2021/03/05 01:06:56;;;;;;;27.40;9.18;;;1.50;99.90;;;;;;5004078;28;20132;-77
2021/03/05 01:09:22;;;;;;;21.85;9.00;;;1.50;99.90;;;;;;5006896;28;20886;-79
2021/03/05 01:11:50;;;;;;;30.10;9.52;;;1.40;99.90;;;;;;5005745;28;20072;-77
2021/03/05 01:14:16;;;;;;;23.13;8.68;;;1.40;99.90;;;;;;4987735;28;20049;-77
2021/03/05 01:16:42;;;;;;;22.52;9.07;;;1.40;99.90;;;;;;5005032;28;20160;-77
2021/03/05 01:19:10;;;;;;;20.80;8.48;;;1.40;99.90;;;;;;5005560;28;20402;-78
2021/03/05 01:21:37;;;;;;;24.30;9.50;;;1.40;99.90;;;;;;5005221;28;20061;-77
2021/03/05 01:24:04;;;;;;;25.63;7.90;;;1.40;99.90;;;;;;4979174;28;20576;-78
2021/03/05 01:26:30;;;;;;;22.65;7.38;;;1.40;99.90;;;;;;5003788;28;20045;-77
2021/03/05 01:28:56;;;;;;;18.23;7.40;;;1.40;99.90;;;;;;5005825;28;20148;-77
2021/03/05 01:31:22;;;;;;;22.35;7.05;;;1.40;99.90;;;;;;5003039;28;20073;-77
2021/03/05 01:33:50;;;;;;;15.73;6.57;;;1.30;99.90;;;;;;5006959;28;20056;-77
2021/03/05 01:36:34;;;;;;;25.33;6.33;;;1.30;99.90;;;;;;5005088;28;20048;-77
2021/03/05 01:39:00;;;;;;;15.85;6.43;;;1.30;99.90;;;;;;4993147;28;20050;-77
2021/03/05 01:41:27;;;;;;;18.80;6.55;;;1.30;99.90;;;;;;5002758;28;20474;-76
2021/03/05 01:43:53;;;;;;;18.85;6.13;;;1.30;99.90;;;;;;5004564;28;20056;-77
2021/03/05 01:46:21;;;;;;;16.77;5.30;;;1.30;99.90;;;;;;5004858;28;20065;-76
2021/03/05 01:48:48;;;;;;;21.88;6.38;;;1.30;99.90;;;;;;5006036;28;20557;-77
2021/03/05 01:51:20;;;;;;;16.48;5.95;;;1.30;99.90;;;;;;4987528;28;20076;-77
2021/03/05 01:53:48;;;;;;;11.07;5.03;;;1.30;99.90;;;;;;4998387;28;20046;-77
2021/03/05 01:56:35;;;;;;;16.48;4.50;;;1.30;99.90;;;;;;4988393;28;20458;-77
2021/03/05 01:59:05;;;;;;;19.30;4.88;;;1.20;99.90;;;;;;5003189;28;20132;-77
2021/03/05 02:01:32;;;;;;;14.05;4.75;;;1.20;99.90;;;;;;4987173;28;20049;-79
2021/03/05 02:04:00;;;;;;;10.40;4.93;;;1.20;99.90;;;;;;4994693;28;20045;-78
2021/03/05 02:06:26;;;;;;;17.48;4.20;;;1.20;99.90;;;;;;5001001;28;20080;-77
2021/03/05 02:08:52;;;;;;;13.90;3.90;;;1.20;99.90;;;;;;5003818;28;20050;-77
2021/03/05 02:11:22;;;;;;;10.63;3.83;;;1.10;99.90;;;;;;5000388;28;20409;-77
2021/03/05 02:13:52;;;;;;;13.93;4.22;;;1.20;99.90;;;;;;5005180;28;20077;-77
2021/03/05 02:17:06;;;;;;;15.77;3.97;;;1.10;99.90;;;;;;5003215;28;20049;-77
2021/03/05 02:19:49;;;;;;;17.38;4.43;;;1.10;99.90;;;;;;4958113;28;20053;-77
2021/03/05 02:22:40;;;;;;;15.77;3.80;;;1.10;99.90;;;;;;4983714;28;20056;-77
2021/03/05 02:25:41;;;;;;;11.90;3.38;;;1.10;99.90;;;;;;5001976;28;20045;-76
2021/03/05 02:28:45;;;;;;;19.10;3.55;;;1.00;99.90;;;;;;5001511;28;20049;-77
2021/03/05 02:31:39;;;;;;;21.75;3.85;;;1.00;99.90;;;;;;5002428;28;20481;-77
2021/03/05 02:34:25;;;;;;;9.90;3.10;;;1.00;99.90;;;;;;4988991;28;20041;-77
2021/03/05 02:37:01;;;;;;;19.45;3.47;;;0.90;99.90;;;;;;5003520;28;20049;-77
2021/03/05 02:39:51;;;;;;;16.25;4.60;;;1.00;99.90;;;;;;5002733;28;20049;-77
2021/03/05 02:42:28;;;;;;;13.52;3.05;;;0.90;99.90;;;;;;5003864;28;20050;-80
2021/03/05 02:44:59;;;;;;;14.68;3.05;;;0.90;99.90;;;;;;5001937;28;20065;-79
2021/03/05 02:47:30;;;;;;;8.63;2.72;;;0.90;99.90;;;;;;4983623;28;20502;-77
2021/03/05 02:49:57;;;;;;;12.68;5.07;;;0.90;99.90;;;;;;4987803;28;20057;-77
2021/03/05 02:52:26;;;;;;;13.73;2.75;;;0.90;99.90;;;;;;5005607;28;20092;-77
2021/03/05 02:54:55;;;;;;;22.00;3.55;;;0.80;99.90;;;;;;4992098;28;20057;-77
2021/03/05 02:57:26;;;;;;;16.45;2.63;;;0.80;99.90;;;;;;4984442;28;20072;-77
2021/03/05 02:59:52;;;;;;;17.33;2.40;;;0.80;99.90;;;;;;5000077;28;20048;-77
2021/03/05 03:02:30;;;;;;;10.52;3.42;;;0.80;99.90;;;;;;5003963;28;20081;-79
2021/03/05 03:04:58;;;;;;;15.23;2.78;;;0.80;99.90;;;;;;4993014;28;20103;-79
2021/03/05 03:07:41;;;;;;;11.00;2.78;;;0.80;99.90;;;;;;4987420;28;20405;-77
2021/03/05 03:10:10;;;;;;;10.32;2.47;;;0.70;99.90;;;;;;5003011;28;20064;-77
2021/03/05 03:12:38;;;;;;;17.23;2.72;;;0.60;99.90;;;;;;4995332;28;20142;-78
2021/03/05 03:15:10;;;;;;;11.10;2.67;;;0.60;99.90;;;;;;5005651;28;20145;-79
2021/03/05 03:17:45;;;;;;;11.52;2.55;;;0.60;99.90;;;;;;5004833;28;20050;-77
2021/03/05 03:20:14;;;;;;;11.57;2.53;;;0.50;99.90;;;;;;5003607;28;20145;-77
2021/03/05 03:22:42;;;;;;;7.70;2.45;;;0.50;99.90;;;;;;4996769;28;20084;-77
2021/03/05 03:25:09;;;;;;;20.13;2.90;;;0.50;99.90;;;;;;4986584;28;20060;-77
2021/03/05 03:27:35;;;;;;;19.95;3.97;;;0.50;99.90;;;;;;4988215;28;20129;-78
2021/03/05 03:30:08;;;;;;;17.10;2.30;;;0.50;99.90;;;;;;5000136;28;20053;-77
2021/03/05 03:32:35;;;;;;;17.33;3.17;;;0.50;99.90;;;;;;5002651;28;20077;-77
2021/03/05 03:35:08;;;;;;;19.15;3.63;;;0.40;99.90;;;;;;5000955;28;20160;-77
2021/03/05 03:37:35;;;;;;;17.52;3.58;;;0.40;99.90;;;;;;5001234;28;20541;-77
2021/03/05 03:40:07;;;;;;;16.95;3.80;;;0.40;99.90;;;;;;5006097;28;20047;-79
2021/03/05 03:42:34;;;;;;;18.45;2.85;;;0.30;99.90;;;;;;4984396;28;20132;-76
2021/03/05 03:45:03;;;;;;;17.10;2.85;;;0.30;99.90;;;;;;5002909;28;20145;-79
2021/03/05 03:47:29;;;;;;;17.70;3.13;;;0.30;99.90;;;;;;4990297;28;20059;-77
2021/03/05 03:49:59;;;;;;;16.75;3.63;;;0.30;99.90;;;;;;5002315;28;20109;-79
2021/03/05 03:52:31;;;;;;;13.32;2.92;;;0.30;99.90;;;;;;5001732;28;20046;-77
2021/03/05 03:54:58;;;;;;;26.58;2.88;;;0.20;99.90;;;;;;4993716;28;20117;-77
2021/03/05 03:57:25;;;;;;;15.98;2.58;;;0.20;99.90;;;;;;5004407;28;20062;-79
2021/03/05 03:59:53;;;;;;;12.45;2.67;;;0.20;99.90;;;;;;5002615;28;20052;-77
2021/03/05 04:02:25;;;;;;;24.38;4.90;;;0.20;99.90;;;;;;5006428;28;20128;-76
2021/03/05 04:04:53;;;;;;;15.85;3.10;;;0.10;99.90;;;;;;4989732;28;20049;-77
2021/03/05 04:07:20;;;;;;;19.95;3.50;;;0.10;99.90;;;;;;5007190;28;20511;-77
2021/03/05 04:09:49;;;;;;;10.80;2.92;;;0.10;99.90;;;;;;4995172;28;20386;-77
2021/03/05 04:12:16;;;;;;;18.83;3.40;;;0.00;99.90;;;;;;4993481;28;20384;-77
2021/03/05 04:14:42;;;;;;;13.75;3.22;;;0.00;99.90;;;;;;4998196;28;20137;-76
2021/03/05 04:17:08;;;;;;;17.52;2.55;;;0.00;99.90;;;;;;5006559;28;20057;-77
2021/03/05 04:19:35;;;;;;;21.17;3.03;;;0.00;99.90;;;;;;4992403;28;20119;-77
2021/03/05 04:22:02;;;;;;;12.02;2.60;;;0.00;99.90;;;;;;5006689;28;20056;-79
2021/03/05 04:24:28;;;;;;;12.02;2.75;;;-0.10;99.90;;;;;;5006399;28;20490;-77
2021/03/05 04:26:55;;;;;;;18.10;3.70;;;-0.10;99.90;;;;;;5005288;28;20796;-77
2021/03/05 04:29:21;;;;;;;14.93;2.83;;;-0.10;99.90;;;;;;4987581;28;20072;-77
2021/03/05 04:31:47;;;;;;;18.15;3.25;;;-0.20;99.90;;;;;;5004859;28;20161;-77
2021/03/05 04:34:14;;;;;;;16.70;4.10;;;-0.20;99.90;;;;;;4996394;28;20564;-77
2021/03/05 04:36:40;;;;;;;17.15;3.83;;;-0.30;99.90;;;;;;5006515;28;20069;-76
2021/03/05 04:39:07;;;;;;;18.77;4.30;;;-0.30;99.90;;;;;;5005760;28;20445;-77
2021/03/05 04:41:33;;;;;;;26.55;3.67;;;-0.40;99.90;;;;;;5007323;28;20573;-80
2021/03/05 04:44:00;;;;;;;10.27;2.88;;;-0.40;99.90;;;;;;5010094;28;20068;-79
2021/03/05 04:46:27;;;;;;;16.10;3.58;;;-0.40;99.90;;;;;;5007726;28;20485;-78
2021/03/05 04:48:54;;;;;;;15.07;2.65;;;-0.50;99.90;;;;;;5005666;28;20078;-77
2021/03/05 04:51:21;;;;;;;14.98;3.05;;;-0.50;99.90;;;;;;5004981;28;20062;-79
2021/03/05 04:53:48;;;;;;;11.85;2.88;;;-0.60;99.90;;;;;;5008453;28;20050;-79
2021/03/05 04:56:14;;;;;;;24.15;4.68;;;-0.60;99.90;;;;;;4991139;28;20133;-77
2021/03/05 04:58:40;;;;;;;8.00;2.45;;;-0.70;99.90;;;;;;4990643;28;20058;-78
2021/03/05 05:01:06;;;;;;;20.55;2.58;;;-0.70;99.90;;;;;;5007464;28;20083;-79
2021/03/05 05:03:33;;;;;;;17.80;4.28;;;-0.70;99.90;;;;;;4987461;28;20050;-79
2021/03/05 05:05:59;;;;;;;21.90;3.30;;;-0.80;99.90;;;;;;5006175;28;20073;-78
2021/03/05 05:08:25;;;;;;;18.27;2.90;;;-0.80;99.90;;;;;;5004091;28;20157;-77
2021/03/05 05:10:53;;;;;;;20.35;3.33;;;-0.80;99.90;;;;;;5003911;28;20038;-76
2021/03/05 05:13:19;;;;;;;19.60;3.75;;;-0.90;99.90;;;;;;4999879;28;20056;-78
2021/03/05 05:15:45;;;;;;;13.93;3.50;;;-0.90;99.90;;;;;;5007193;28;20852;-78
2021/03/05 05:18:12;;;;;;;13.30;3.85;;;-0.90;99.90;;;;;;5006317;28;20049;-78
2021/03/05 05:20:39;;;;;;;8.15;3.10;;;-0.90;99.90;;;;;;5004443;28;20072;-77
2021/03/05 05:23:05;;;;;;;17.00;3.42;;;-1.00;99.90;;;;;;4987444;28;20049;-78
2021/03/05 05:25:32;;;;;;;12.95;3.28;;;-1.00;99.90;;;;;;5005838;28;20133;-77
2021/03/05 05:27:58;;;;;;;16.00;4.25;;;-1.00;99.90;;;;;;4993164;28;20424;-78
2021/03/05 05:30:24;;;;;;;16.08;3.05;;;-1.00;99.90;;;;;;5003166;28;20050;-78
2021/03/05 05:32:51;;;;;;;14.68;3.00;;;-1.10;99.90;;;;;;4987257;28;20054;-78
2021/03/05 05:35:17;;;;;;;21.98;4.75;;;-1.10;99.90;;;;;;5002071;28;24954;-77
2021/03/05 05:37:43;;;;;;;11.10;2.80;;;-1.10;99.90;;;;;;4983942;28;20380;-77
2021/03/05 05:40:10;;;;;;;19.42;4.05;;;-1.10;99.90;;;;;;5000642;28;20056;-77
2021/03/05 05:42:36;;;;;;;15.20;4.80;;;-1.20;99.90;;;;;;4990731;28;20053;-77
2021/03/05 05:45:04;;;;;;;13.35;3.80;;;-1.20;99.90;;;;;;5001750;28;20081;-78
2021/03/05 05:47:34;;;;;;;21.27;4.47;;;-1.20;99.90;;;;;;5000525;28;20569;-78
2021/03/05 05:50:04;;;;;;;16.30;3.80;;;-1.10;99.90;;;;;;4997931;28;20049;-78
2021/03/05 05:52:32;;;;;;;18.60;3.40;;;-1.10;99.90;;;;;;4995549;28;20129;-78
2021/03/05 05:55:00;;;;;;;12.60;3.40;;;-1.10;99.90;;;;;;4997685;28;21088;-77
2021/03/05 05:57:28;;;;;;;10.73;3.95;;;-1.00;99.90;;;;;;4999953;28;20549;-76
2021/03/05 05:59:57;;;;;;;11.90;2.78;;;-0.90;99.90;;;;;;4988628;28;20085;-77
2021/03/05 06:02:25;;;;;;;17.83;3.25;;;-0.80;99.90;;;;;;4983178;28;20061;-77
2021/03/05 06:04:55;;;;;;;24.48;3.15;;;-0.70;99.90;;;;;;4998461;28;20061;-77
2021/03/05 06:07:22;;;;;;;7.90;2.42;;;-0.50;99.90;;;;;;5003063;28;20064;-78
2021/03/05 06:10:04;;;;;;;7.40;1.77;;;-0.40;99.90;;;;;;4992077;28;20147;-80
2021/03/05 06:12:32;;;;;;;12.95;2.85;;;-0.30;99.90;;;;;;5005765;28;20490;-79
2021/03/05 06:14:58;;;;;;;6.30;1.55;;;-0.20;99.90;;;;;;4988562;28;20060;-78
2021/03/05 06:18:00;;;;;;;5.75;1.83;;;-0.10;99.90;;;;;;4992519;28;20054;-78
2021/03/05 06:20:43;;;;;;;11.80;1.50;;;0.00;99.90;;;;;;4979635;28;20122;-79
2021/03/05 06:23:12;;;;;;;12.85;2.55;;;0.00;99.90;;;;;;5000958;28;20121;-78
2021/03/05 06:25:39;;;;;;;15.57;2.85;;;0.00;99.90;;;;;;5002611;28;20038;-80
2021/03/05 06:28:13;;;;;;;11.30;1.90;;;0.00;99.90;;;;;;4987064;28;20046;-79
2021/03/05 06:30:39;;;;;;;11.30;1.52;;;-0.10;99.90;;;;;;5002595;28;20124;-80
2021/03/05 06:33:27;;;;;;;4.53;1.30;;;-0.10;99.90;;;;;;5006691;28;20053;-80
2021/03/05 06:35:53;;;;;;;5.72;2.47;;;-0.10;99.90;;;;;;5005559;28;20046;-79
2021/03/05 06:38:40;;;;;;;15.52;2.40;;;-0.10;99.90;;;;;;5005916;28;20042;-80
2021/03/05 06:41:18;;;;;;;30.08;8.55;;;-0.10;99.90;;;;;;5007283;28;20116;-80
2021/03/05 06:43:55;;;;;;;19.27;4.00;;;-0.10;99.90;;;;;;4988741;28;20038;-79
2021/03/05 06:46:41;;;;;;;17.38;6.75;;;0.00;99.90;;;;;;5005137;28;20097;-81
2021/03/05 06:49:10;;;;;;;12.85;2.80;;;0.00;99.90;;;;;;5005159;28;20065;-81
2021/03/05 06:51:37;;;;;;;12.55;3.25;;;0.00;99.90;;;;;;5008326;28;20053;-79
2021/03/05 06:54:06;;;;;;;11.90;4.20;;;0.10;99.90;;;;;;5005283;28;20114;-79
2021/03/05 06:56:34;;;;;;;3.60;1.60;;;0.10;99.90;;;;;;4995893;28;20121;-81
2021/03/05 06:59:11;;;;;;;10.13;3.47;;;0.20;99.90;;;;;;4986942;28;20061;-81
2021/03/05 07:01:55;;;;;;;10.43;2.70;;;0.20;99.90;;;;;;5003653;28;20057;-78
2021/03/05 07:04:24;;;;;;;4.90;1.95;;;0.30;99.90;;;;;;5002176;28;20046;-78
2021/03/05 07:07:08;;;;;;;9.73;1.13;;;0.40;99.90;;;;;;5001780;28;20058;-80
2021/03/05 07:09:54;;;;;;;7.95;1.33;;;0.50;99.90;;;;;;4985246;28;20050;-78
2021/03/05 07:12:24;;;;;;;11.40;3.30;;;0.60;99.90;;;;;;4995008;28;20081;-80
2021/03/05 07:15:00;;;;;;;6.32;2.92;;;0.70;99.90;;;;;;5000101;28;20331;-79
2021/03/05 07:17:29;;;;;;;14.80;6.88;;;0.70;99.90;;;;;;4991029;28;20118;-79
2021/03/05 07:19:55;;;;;;;5.82;2.00;;;0.80;99.90;;;;;;5008036;28;20485;-79
2021/03/05 07:22:29;;;;;;;8.18;3.20;;;0.90;99.90;;;;;;4996149;28;20053;-78
2021/03/05 07:24:57;;;;;;;10.15;1.30;;;1.10;99.90;;;;;;4999093;28;20049;-76
2021/03/05 07:27:37;;;;;;;6.63;1.55;;;1.20;99.90;;;;;;4989813;28;20359;-77
2021/03/05 07:30:18;;;;;;;9.82;1.55;;;1.30;99.90;;;;;;4990865;28;20042;-78
2021/03/05 07:32:47;;;;;;;7.45;1.63;;;1.40;99.90;;;;;;5011119;28;20529;-78
2021/03/05 07:35:22;;;;;;;5.90;1.08;;;1.50;99.90;;;;;;5008478;28;20396;-78
2021/03/05 07:38:01;;;;;;;9.93;1.85;;;1.60;99.90;;;;;;5022431;28;20054;-77
2021/03/05 07:40:28;;;;;;;9.15;1.10;;;1.70;99.90;;;;;;5013009;28;20100;-76
2021/03/05 07:42:56;;;;;;;5.57;1.63;;;1.80;99.90;;;;;;4998421;28;20101;-77
2021/03/05 07:45:23;;;;;;;9.65;1.35;;;2.00;99.90;;;;;;5025169;28;20049;-78
2021/03/05 07:47:52;;;;;;;2.78;0.73;;;2.20;99.90;;;;;;5003898;28;20057;-78
2021/03/05 07:50:26;;;;;;;5.18;1.35;;;2.70;99.90;;;;;;5020200;28;20053;-77
2021/03/05 07:52:57;;;;;;;;;;;3.30;99.90;;;;;;5014187;28;21012;-77
2021/03/05 07:55:37;;;;;;;6.88;0.75;;;3.80;99.90;;;;;;5020398;28;19925;-77
2021/03/05 07:58:04;;;;;;;5.07;0.88;;;4.30;99.90;;;;;;5012469;28;20065;-77
2021/03/05 08:00:56;;;;;;;12.13;1.20;;;4.60;99.90;;;;;;5024918;28;20054;-77
2021/03/05 08:03:24;;;;;;;2.30;0.80;;;4.80;99.90;;;;;;5002653;28;20109;-77
2021/03/05 08:05:51;;;;;;;7.15;0.90;;;4.90;99.90;;;;;;5004617;28;20054;-77
2021/03/05 08:08:23;;;;;;;9.13;0.75;;;5.20;99.90;;;;;;5019215;28;20136;-79
2021/03/05 08:10:59;;;;;;;2.45;0.80;;;5.40;99.90;;;;;;5018414;28;20065;-78
2021/03/05 08:13:50;;;;;;;5.57;0.68;;;5.60;95.60;;;;;;5013158;28;20045;-78
2021/03/05 08:16:25;;;;;;;4.07;1.08;;;5.70;97.40;;;;;;4993733;28;20125;-78
2021/03/05 08:19:15;;;;;;;6.93;1.25;;;6.00;96.90;;;;;;5011209;28;20045;-78
2021/03/05 08:21:51;;;;;;;8.75;0.63;;;6.20;93.10;;;;;;5007388;28;20132;-78
2021/03/05 08:24:23;;;;;;;2.65;0.85;;;6.40;92.90;;;;;;5010189;28;20478;-78
2021/03/05 08:27:04;;;;;;;5.55;0.95;;;6.50;90.30;;;;;;5007416;28;20861;-78
2021/03/05 08:29:50;;;;;;;3.92;0.60;;;6.60;86.80;;;;;;5008630;28;20053;-78
2021/03/05 08:35:05;;;;;;;2.90;1.20;;;7.20;83.80;;;;;;5011792;28;20049;-77
2021/03/05 08:37:37;;;;;;;2.25;0.30;;;7.40;81.00;;;;;;4991084;28;20180;-78
2021/03/05 08:40:12;;;;;;;5.47;0.68;;;7.30;76.10;;;;;;5010130;28;20057;-79
2021/03/05 08:42:43;;;;;;;2.35;0.45;;;7.00;78.30;;;;;;5007575;28;20113;-78
2021/03/05 08:45:23;;;;;;;3.63;0.80;;;6.60;73.70;;;;;;5008772;28;20054;-78
2021/03/05 08:47:56;;;;;;;4.20;0.70;;;6.20;76.40;;;;;;5005999;28;20074;-78
2021/03/05 08:50:30;;;;;;;3.90;0.60;;;6.00;79.50;;;;;;5009791;28;20100;-78
2021/03/05 08:53:01;;;;;;;1.88;0.43;;;5.80;85.30;;;;;;5004491;28;20053;-78
2021/03/05 08:55:32;;;;;;;2.85;0.50;;;5.70;80.90;;;;;;5006437;28;20054;-78
2021/03/05 08:57:59;;;;;;;2.50;0.50;;;5.60;81.90;;;;;;5005316;28;20990;-78
2021/03/05 09:00:31;;;;;;;4.22;0.50;;;5.50;86.60;;;;;;4996048;28;20054;-78
2021/03/05 09:03:15;;;;;;;1.02;0.35;;;5.50;87.50;;;;;;4993510;28;20062;-78
2021/03/05 09:05:44;;;;;;;2.92;0.88;;;5.60;79.80;;;;;;4981829;28;20062;-78
2021/03/05 09:08:12;;;;;;;2.67;0.38;;;5.40;83.30;;;;;;5004692;28;20045;-77
2021/03/05 09:10:54;;;;;;;2.33;0.40;;;5.30;87.20;;;;;;4986885;28;20060;-77
2021/03/05 09:13:32;;;;;;;2.20;0.55;;;5.40;83.50;;;;;;5003652;28;20101;-78
2021/03/05 09:16:04;;;;;;;2.15;0.47;;;5.40;85.20;;;;;;5009028;28;20057;-78
2021/03/05 09:18:33;;;;;;;1.25;0.30;;;5.40;88.80;;;;;;5004462;28;20041;-77
2021/03/05 09:21:02;;;;;;;3.28;0.52;;;5.50;81.00;;;;;;4992057;28;20137;-78
2021/03/05 09:23:42;;;;;;;3.05;0.32;;;5.50;85.90;;;;;;5009779;28;20060;-80
2021/03/05 09:26:15;;;;;;;1.50;0.45;;;5.60;83.80;;;;;;4995123;28;20215;-81
2021/03/05 09:28:45;;;;;;;5.95;0.80;;;5.60;87.10;;;;;;4986298;28;20412;-81
2021/03/05 09:31:14;;;;;;;0.88;0.32;;;5.80;85.20;;;;;;5000955;28;20065;-78
2021/03/05 09:33:46;;;;;;;5.47;0.52;;;5.80;82.00;;;;;;4997848;28;20057;-78
2021/03/05 09:36:15;;;;;;;1.85;0.40;;;5.90;82.80;;;;;;5011477;28;20050;-79
2021/03/05 09:38:52;;;;;;;1.48;0.40;;;5.90;78.40;;;;;;4990576;28;20517;-79
2021/03/05 09:41:27;;;;;;;5.63;0.45;;;5.90;79.60;;;;;;5004660;28;20065;-83
2021/03/05 09:44:00;;;;;;;2.83;0.57;;;6.00;74.70;;;;;;5007699;28;20145;-81
2021/03/05 09:46:28;;;;;;;3.00;0.57;;;6.00;69.50;;;;;;4986636;28;20362;-79
2021/03/05 09:48:56;;;;;;;1.75;0.55;;;6.10;68.30;;;;;;4986964;28;20057;-78
2021/03/05 09:51:23;;;;;;;2.65;0.88;;;6.00;70.10;;;;;;4985283;28;20583;-79
2021/03/05 09:53:57;;;;;;;1.85;0.35;;;6.10;73.00;;;;;;4997729;28;20869;-85
2021/03/05 09:56:28;;;;;;;2.95;0.70;;;6.20;71.10;;;;;;4999438;28;20042;-81
2021/03/05 09:59:00;;;;;;;4.00;0.80;;;6.20;67.40;;;;;;5001726;28;20049;-79
2021/03/05 10:01:29;;;;;;;3.05;0.52;;;6.30;71.40;;;;;;4997069;28;20045;-79
2021/03/05 10:04:00;;;;;;;2.80;0.82;;;6.40;68.80;;;;;;5006142;28;20531;-80
2021/03/05 10:06:30;;;;;;;4.97;0.90;;;6.50;67.10;;;;;;4990797;28;20046;-80
2021/03/05 10:09:06;;;;;;;3.85;0.82;;;6.60;67.80;;;;;;4999111;28;20054;-78
2021/03/05 10:11:35;;;;;;;4.22;0.90;;;6.60;69.80;;;;;;5003116;28;20042;-79
2021/03/05 10:14:23;;;;;;;3.08;0.88;;;6.70;70.00;;;;;;5003249;28;20140;-79
2021/03/05 10:16:50;;;;;;;8.30;1.67;;;6.80;66.50;;;;;;4990996;28;20110;-79
2021/03/05 10:19:21;;;;;;;3.85;1.20;;;6.70;67.50;;;;;;5000414;28;20071;-79
2021/03/05 10:21:50;;;;;;;7.88;1.30;;;6.80;68.70;;;;;;5004965;28;20493;-79
2021/03/05 10:24:28;;;;;;;7.72;1.40;;;6.80;70.00;;;;;;5006360;28;20111;-79
2021/03/05 10:27:11;;;;;;;3.70;1.33;;;6.90;71.10;;;;;;4980581;28;20557;-79
2021/03/05 10:29:49;;;;;;;7.82;1.65;;;7.00;70.10;;;;;;4993610;28;20062;-79
2021/03/05 10:32:25;;;;;;;6.10;1.55;;;7.10;66.80;;;;;;4984426;28;20113;-79
2021/03/05 10:35:05;;;;;;;7.30;1.75;;;7.00;65.20;;;;;;5006825;28;20501;-79
2021/03/05 10:37:32;;;;;;;6.35;1.95;;;7.00;67.10;;;;;;5006524;28;20049;-79
2021/03/05 10:40:00;;;;;;;8.57;2.70;;;7.10;67.10;;;;;;5007517;28;20136;-79
2021/03/05 10:42:28;;;;;;;4.72;1.90;;;7.10;69.20;;;;;;5006732;28;20069;-79
2021/03/05 10:44:55;;;;;;;7.80;1.60;;;7.20;69.20;;;;;;4988357;28;20165;-79
2021/03/05 10:47:23;;;;;;;7.13;1.98;;;7.30;68.00;;;;;;5006038;28;20077;-78
2021/03/05 10:49:51;;;;;;;2.38;1.23;;;7.40;70.00;;;;;;4996035;28;20053;-79
2021/03/05 10:52:21;;;;;;;2.80;1.00;;;7.50;67.10;;;;;;4992125;28;21093;-79
2021/03/05 10:54:48;;;;;;;6.00;1.02;;;7.40;65.40;;;;;;4986671;28;20117;-80
2021/03/05 10:57:16;;;;;;;4.00;1.30;;;7.40;68.20;;;;;;4988476;28;20062;-79
2021/03/05 10:59:44;;;;;;;5.45;1.63;;;7.40;69.30;;;;;;5005449;28;20136;-78
2021/03/05 11:02:11;;;;;;;4.63;1.08;;;7.40;66.40;;;;;;4998376;28;20106;-79
2021/03/05 11:04:38;;;;;;;8.10;1.52;;;7.40;68.20;;;;;;4986189;28;20077;-79
2021/03/05 11:07:05;;;;;;;8.15;2.28;;;7.50;69.10;;;;;;5009280;28;20073;-79
2021/03/05 11:09:32;;;;;;;9.15;2.88;;;7.60;70.80;;;;;;4983665;28;20093;-79
2021/03/05 11:11:59;;;;;;;4.30;1.80;;;7.80;69.10;;;;;;5008445;28;20078;-79
2021/03/05 11:14:27;;;;;;;12.60;3.20;;;7.90;66.90;;;;;;4996408;28;20537;-79
2021/03/05 11:16:53;;;;;;;5.03;2.40;;;7.90;67.50;;;;;;5006858;28;20136;-78
2021/03/05 11:19:22;;;;;;;8.27;2.60;;;7.90;67.40;;;;;;5003674;28;20137;-79
2021/03/05 11:21:48;;;;;;;4.80;2.03;;;8.00;68.40;;;;;;5004996;28;20134;-79
2021/03/05 11:24:14;;;;;;;5.82;2.20;;;7.90;67.40;;;;;;5006755;28;21488;-79
2021/03/05 11:26:41;;;;;;;11.35;3.20;;;7.90;67.90;;;;;;4989650;28;20129;-79
2021/03/05 11:29:08;;;;;;;9.40;2.60;;;7.90;70.00;;;;;;4987392;28;20045;-79
2021/03/05 11:31:37;;;;;;;12.48;3.08;;;8.00;69.50;;;;;;5001490;28;20498;-81
2021/03/05 11:34:11;;;;;;;11.48;3.72;;;8.20;68.10;;;;;;4982218;28;20046;-84
2021/03/05 11:36:38;;;;;;;10.23;2.67;;;8.30;68.50;;;;;;4997740;28;20122;-79
2021/03/05 11:39:05;;;;;;;5.10;2.10;;;8.50;68.90;;;;;;5010969;28;20050;-82
2021/03/05 11:41:31;;;;;;;5.00;1.70;;;8.60;69.70;;;;;;5002347;28;20628;-79
2021/03/05 11:44:16;;;;;;;5.47;1.90;;;8.80;66.50;;;;;;4987080;28;20070;-79
2021/03/05 11:46:43;;;;;;;4.72;1.67;;;8.90;65.40;;;;;;5007977;28;20125;-83
2021/03/05 11:49:09;;;;;;;7.35;1.38;;;9.10;65.30;;;;;;5007526;28;20468;-82
2021/03/05 11:51:36;;;;;;;3.28;1.40;;;9.10;64.90;;;;;;5006775;28;20066;-80
2021/03/05 11:54:07;;;;;;;8.13;1.40;;;8.90;63.60;;;;;;4989388;28;20045;-81
2021/03/05 11:56:34;;;;;;;4.57;1.30;;;8.90;66.30;;;;;;4979697;28;20080;-80
2021/03/05 11:59:01;;;;;;;4.55;1.00;;;9.00;64.60;;;;;;4985741;28;20073;-80
2021/03/05 12:01:29;;;;;;;4.20;1.45;;;9.20;64.30;;;;;;5008667;28;20054;-80
2021/03/05 12:03:55;;;;;;;4.30;1.55;;;9.30;65.30;;;;;;4995072;28;20125;-80
2021/03/05 12:06:22;;;;;;;4.63;1.05;;;9.40;63.50;;;;;;5003079;28;20464;-80
2021/03/05 12:08:49;;;;;;;3.63;0.90;;;9.70;65.80;;;;;;5007435;28;20073;-81
2021/03/05 12:11:15;;;;;;;10.98;1.42;;;10.00;62.90;;;;;;4987445;28;20054;-81
2021/03/05 12:13:41;;;;;;;6.10;1.23;;;10.20;64.40;;;;;;4980292;28;20133;-80
2021/03/05 12:16:08;;;;;;;3.20;0.70;;;10.40;61.40;;;;;;4988369;28;20049;-81
2021/03/05 12:18:34;;;;;;;3.42;0.75;;;10.40;59.80;;;;;;5004207;28;20528;-81
2021/03/05 12:21:00;;;;;;;3.25;0.60;;;10.40;58.40;;;;;;5010784;28;20618;-80
2021/03/05 12:23:29;;;;;;;3.08;0.52;;;10.20;58.80;;;;;;5011369;28;20073;-79
2021/03/05 12:25:56;;;;;;;1.65;0.50;;;9.90;59.60;;;;;;4998343;28;20073;-79
2021/03/05 12:28:22;;;;;;;5.18;0.80;;;9.50;59.00;;;;;;4992468;28;20092;-82
2021/03/05 12:30:48;;;;;;;2.90;0.60;;;9.40;59.00;;;;;;4993298;28;20105;-79
2021/03/05 12:33:15;;;;;;;3.08;0.60;;;9.40;60.20;;;;;;5013265;28;20050;-81
2021/03/05 12:35:41;;;;;;;0.63;0.50;;;9.60;58.60;;;;;;4992542;28;20117;-80
2021/03/05 12:38:07;;;;;;;2.55;0.95;;;9.80;57.80;;;;;;4981588;28;20382;-82
2021/03/05 12:40:34;;;;;;;3.95;0.52;;;9.90;56.40;;;;;;5001018;28;20580;-81
2021/03/05 12:43:01;;;;;;;1.75;0.90;;;9.90;55.90;;;;;;4991348;28;20050;-84
2021/03/05 12:45:27;;;;;;;3.15;1.17;;;10.00;55.70;;;;;;5009390;28;20459;-84
2021/03/05 12:47:53;;;;;;;5.57;0.90;;;10.40;54.50;;;;;;5000783;28;20050;-81
2021/03/05 12:50:19;;;;;;;4.05;0.70;;;10.70;56.00;;;;;;5014597;28;20056;-81
2021/03/05 12:52:46;;;;;;;1.60;0.60;;;11.20;55.00;;;;;;5008924;28;20137;-82
2021/03/05 12:55:13;;;;;;;2.78;0.85;;;11.60;52.80;;;;;;5008705;28;20489;-80
2021/03/05 12:57:39;;;;;;;2.67;0.45;;;12.20;52.70;;;;;;4990062;28;20156;-82
2021/03/05 13:00:06;;;;;;;2.38;0.43;;;12.90;47.80;;;;;;4993094;28;20054;-80
2021/03/05 13:02:33;;;;;;;2.22;0.45;;;13.10;46.60;;;;;;4991424;28;20137;-80
2021/03/05 13:05:01;;;;;;;2.67;0.70;;;13.20;47.10;;;;;;4995160;28;20069;-79
2021/03/05 13:07:27;;;;;;;1.85;0.40;;;12.80;47.00;;;;;;4991920;28;20389;-79
2021/03/05 13:09:53;;;;;;;7.15;0.80;;;13.00;46.50;;;;;;4986059;28;20067;-82